Whitworth, United Kingdom
Current Conditions -  °F | °C
As of 8:50 AM on Sunday 21 Dec 2014 (Local Time) from EGCC Reporting Station
Moderate Rain Moderate Rain  
Wind Chill:   Ceiling: 3000
Heat Index:   Visibility: 2.5mi
Dew Point:   Wind: 13mph
Humidity: 87%   Direction: 200°SSW
Pressure: 30.18"   Gusts: NA
Location:  53.66°N, 2.18°W
Report Text: EGCC 210850Z 20011KT 4000 RA SCT016 SCT023 BKN030 07/05 Q1022
Loading
Personal Weather Stations






























Interactive Weather Map New forecast layout! Learn more

10-Day Weather Forecast

Advertisements
Track Severe Weather on mobile